sensor_id;sensor_type;location;lat;lon;timestamp;temperature;humidity
7844;DHT22;3967;48.702;9.326;2023-03-03T00:01:27;4.40;91.50
7844;DHT22;3967;48.702;9.326;2023-03-03T00:03:56;4.40;91.40
7844;DHT22;3967;48.702;9.326;2023-03-03T00:06:22;4.40;91.30
7844;DHT22;3967;48.702;9.326;2023-03-03T00:08:50;4.40;91.30
7844;DHT22;3967;48.702;9.326;2023-03-03T00:11:17;4.40;91.40
7844;DHT22;3967;48.702;9.326;2023-03-03T00:13:50;4.40;91.40
7844;DHT22;3967;48.702;9.326;2023-03-03T00:16:37;4.30;91.40
7844;DHT22;3967;48.702;9.326;2023-03-03T00:19:13;4.40;91.50
7844;DHT22;3967;48.702;9.326;2023-03-03T00:21:42;4.50;91.50
7844;DHT22;3967;48.702;9.326;2023-03-03T00:26:50;4.40;91.30
7844;DHT22;3967;48.702;9.326;2023-03-03T00:29:28;4.40;91.30
7844;DHT22;3967;48.702;9.326;2023-03-03T00:31:59;4.30;91.40
7844;DHT22;3967;48.702;9.326;2023-03-03T00:34:29;4.40;91.40
7844;DHT22;3967;48.702;9.326;2023-03-03T00:36:58;4.40;91.40
7844;DHT22;3967;48.702;9.326;2023-03-03T00:39:35;4.30;91.30
7844;DHT22;3967;48.702;9.326;2023-03-03T00:42:11;4.20;91.40
7844;DHT22;3967;48.702;9.326;2023-03-03T00:44:43;4.20;91.40
7844;DHT22;3967;48.702;9.326;2023-03-03T00:47:26;4.20;91.40
7844;DHT22;3967;48.702;9.326;2023-03-03T00:52:36;4.10;91.50
7844;DHT22;3967;48.702;9.326;2023-03-03T00:55:03;4.00;91.40
7844;DHT22;3967;48.702;9.326;2023-03-03T00:57:30;4.00;91.40
7844;DHT22;3967;48.702;9.326;2023-03-03T00:59:57;3.90;91.50
7844;DHT22;3967;48.702;9.326;2023-03-03T01:02:24;3.90;91.50
7844;DHT22;3967;48.702;9.326;2023-03-03T01:04:52;3.90;91.50
7844;DHT22;3967;48.702;9.326;2023-03-03T01:07:22;3.90;91.50
7844;DHT22;3967;48.702;9.326;2023-03-03T01:09:49;3.80;91.70
7844;DHT22;3967;48.702;9.326;2023-03-03T01:12:16;3.90;91.70
7844;DHT22;3967;48.702;9.326;2023-03-03T01:14:42;3.80;91.50
7844;DHT22;3967;48.702;9.326;2023-03-03T01:17:10;3.70;91.50
7844;DHT22;3967;48.702;9.326;2023-03-03T01:19:37;3.60;91.60
7844;DHT22;3967;48.702;9.326;2023-03-03T01:22:04;3.70;91.80
7844;DHT22;3967;48.702;9.326;2023-03-03T01:24:30;3.60;91.70
7844;DHT22;3967;48.702;9.326;2023-03-03T01:26:57;3.60;91.80
7844;DHT22;3967;48.702;9.326;2023-03-03T01:29:24;3.60;91.90
7844;DHT22;3967;48.702;9.326;2023-03-03T01:31:50;3.50;91.90
7844;DHT22;3967;48.702;9.326;2023-03-03T01:34:17;3.50;91.90
7844;DHT22;3967;48.702;9.326;2023-03-03T01:36:44;3.50;92.00
7844;DHT22;3967;48.702;9.326;2023-03-03T01:39:11;3.50;92.10
7844;DHT22;3967;48.702;9.326;2023-03-03T01:41:37;3.50;92.10
7844;DHT22;3967;48.702;9.326;2023-03-03T01:44:04;3.50;92.10
7844;DHT22;3967;48.702;9.326;2023-03-03T01:49:17;3.40;92.00
7844;DHT22;3967;48.702;9.326;2023-03-03T01:51:59;3.40;91.90
7844;DHT22;3967;48.702;9.326;2023-03-03T01:54:37;3.30;92.00
7844;DHT22;3967;48.702;9.326;2023-03-03T01:57:11;3.30;92.00
7844;DHT22;3967;48.702;9.326;2023-03-03T01:59:43;3.30;92.00
7844;DHT22;3967;48.702;9.326;2023-03-03T02:02:10;3.30;91.90
7844;DHT22;3967;48.702;9.326;2023-03-03T02:04:38;3.20;91.90
7844;DHT22;3967;48.702;9.326;2023-03-03T02:07:07;3.20;92.00
7844;DHT22;3967;48.702;9.326;2023-03-03T02:09:47;3.20;92.00
7844;DHT22;3967;48.702;9.326;2023-03-03T02:12:18;3.20;92.00
7844;DHT22;3967;48.702;9.326;2023-03-03T02:14:45;3.20;91.90
7844;DHT22;3967;48.702;9.326;2023-03-03T02:17:12;3.20;91.90
7844;DHT22;3967;48.702;9.326;2023-03-03T02:22:13;3.00;92.40
7844;DHT22;3967;48.702;9.326;2023-03-03T02:24:59;3.10;92.20
7844;DHT22;3967;48.702;9.326;2023-03-03T02:27:29;3.10;92.30
7844;DHT22;3967;48.702;9.326;2023-03-03T02:29:57;3.00;92.30
7844;DHT22;3967;48.702;9.326;2023-03-03T02:32:24;3.00;92.50
7844;DHT22;3967;48.702;9.326;2023-03-03T02:34:51;3.00;92.60
7844;DHT22;3967;48.702;9.326;2023-03-03T02:37:19;2.90;92.50
7844;DHT22;3967;48.702;9.326;2023-03-03T02:39:46;2.90;92.80
7844;DHT22;3967;48.702;9.326;2023-03-03T02:42:20;2.90;92.90
7844;DHT22;3967;48.702;9.326;2023-03-03T02:44:49;2.90;92.80
7844;DHT22;3967;48.702;9.326;2023-03-03T02:47:16;2.90;92.80
7844;DHT22;3967;48.702;9.326;2023-03-03T02:49:42;3.00;93.00
7844;DHT22;3967;48.702;9.326;2023-03-03T02:52:11;3.00;93.30
7844;DHT22;3967;48.702;9.326;2023-03-03T02:54:38;3.00;93.60
7844;DHT22;3967;48.702;9.326;2023-03-03T02:57:05;3.00;93.80
7844;DHT22;3967;48.702;9.326;2023-03-03T02:59:32;3.00;94.00
7844;DHT22;3967;48.702;9.326;2023-03-03T03:01:59;2.80;94.40
7844;DHT22;3967;48.702;9.326;2023-03-03T03:04:26;2.80;94.80
7844;DHT22;3967;48.702;9.326;2023-03-03T03:06:54;2.90;94.70
7844;DHT22;3967;48.702;9.326;2023-03-03T03:09:22;2.90;94.80
7844;DHT22;3967;48.702;9.326;2023-03-03T03:11:49;2.90;95.00
7844;DHT22;3967;48.702;9.326;2023-03-03T03:14:15;3.00;95.00
7844;DHT22;3967;48.702;9.326;2023-03-03T03:16:42;3.00;94.90
7844;DHT22;3967;48.702;9.326;2023-03-03T03:19:09;3.10;95.00
7844;DHT22;3967;48.702;9.326;2023-03-03T03:21:36;3.10;95.20
7844;DHT22;3967;48.702;9.326;2023-03-03T03:24:03;3.10;95.30
7844;DHT22;3967;48.702;9.326;2023-03-03T03:26:30;3.10;95.40
7844;DHT22;3967;48.702;9.326;2023-03-03T03:28:56;3.10;95.40
7844;DHT22;3967;48.702;9.326;2023-03-03T03:31:23;3.10;95.30
7844;DHT22;3967;48.702;9.326;2023-03-03T03:33:50;3.10;95.60
7844;DHT22;3967;48.702;9.326;2023-03-03T03:36:18;3.00;95.80
7844;DHT22;3967;48.702;9.326;2023-03-03T03:38:45;3.00;96.10
7844;DHT22;3967;48.702;9.326;2023-03-03T03:41:11;3.00;96.10
7844;DHT22;3967;48.702;9.326;2023-03-03T03:43:39;3.00;96.10
7844;DHT22;3967;48.702;9.326;2023-03-03T03:46:06;3.00;96.10
7844;DHT22;3967;48.702;9.326;2023-03-03T03:48:33;3.00;96.20
7844;DHT22;3967;48.702;9.326;2023-03-03T03:51:00;3.10;96.20
7844;DHT22;3967;48.702;9.326;2023-03-03T03:53:27;3.10;96.10
7844;DHT22;3967;48.702;9.326;2023-03-03T03:55:55;3.20;96.20
7844;DHT22;3967;48.702;9.326;2023-03-03T03:58:22;3.20;96.10
7844;DHT22;3967;48.702;9.326;2023-03-03T04:00:48;3.10;96.10
7844;DHT22;3967;48.702;9.326;2023-03-03T04:03:15;3.10;96.30
7844;DHT22;3967;48.702;9.326;2023-03-03T04:05:42;3.00;96.20
7844;DHT22;3967;48.702;9.326;2023-03-03T04:08:09;3.10;96.20
7844;DHT22;3967;48.702;9.326;2023-03-03T04:10:36;3.10;96.10
7844;DHT22;3967;48.702;9.326;2023-03-03T04:13:03;3.00;96.20
7844;DHT22;3967;48.702;9.326;2023-03-03T04:15:30;2.90;96.40
7844;DHT22;3967;48.702;9.326;2023-03-03T04:17:57;3.00;96.40
7844;DHT22;3967;48.702;9.326;2023-03-03T04:20:23;3.00;96.20
7844;DHT22;3967;48.702;9.326;2023-03-03T04:22:50;3.10;96.00
7844;DHT22;3967;48.702;9.326;2023-03-03T04:25:17;3.10;95.80
7844;DHT22;3967;48.702;9.326;2023-03-03T04:27:44;3.00;95.80
7844;DHT22;3967;48.702;9.326;2023-03-03T04:30:13;3.10;95.70
7844;DHT22;3967;48.702;9.326;2023-03-03T04:32:40;3.00;95.70
7844;DHT22;3967;48.702;9.326;2023-03-03T04:35:07;3.00;96.00
7844;DHT22;3967;48.702;9.326;2023-03-03T04:37:35;3.00;96.20
7844;DHT22;3967;48.702;9.326;2023-03-03T04:40:05;3.10;96.10
7844;DHT22;3967;48.702;9.326;2023-03-03T04:42:32;3.20;95.80
7844;DHT22;3967;48.702;9.326;2023-03-03T04:44:59;3.20;95.50
7844;DHT22;3967;48.702;9.326;2023-03-03T04:47:26;3.20;95.60
7844;DHT22;3967;48.702;9.326;2023-03-03T04:49:52;3.30;95.50
7844;DHT22;3967;48.702;9.326;2023-03-03T04:52:19;3.30;95.50
7844;DHT22;3967;48.702;9.326;2023-03-03T04:54:46;3.30;95.40
7844;DHT22;3967;48.702;9.326;2023-03-03T04:57:13;3.20;95.40
7844;DHT22;3967;48.702;9.326;2023-03-03T04:59:39;3.30;95.50
7844;DHT22;3967;48.702;9.326;2023-03-03T05:02:06;3.20;95.50
7844;DHT22;3967;48.702;9.326;2023-03-03T05:04:33;3.20;95.60
7844;DHT22;3967;48.702;9.326;2023-03-03T05:07:00;3.20;95.50
7844;DHT22;3967;48.702;9.326;2023-03-03T05:09:27;3.20;95.40
7844;DHT22;3967;48.702;9.326;2023-03-03T05:11:53;3.20;95.60
7844;DHT22;3967;48.702;9.326;2023-03-03T05:14:20;3.20;96.00
7844;DHT22;3967;48.702;9.326;2023-03-03T05:16:47;3.20;96.00
7844;DHT22;3967;48.702;9.326;2023-03-03T05:19:14;3.20;95.90
7844;DHT22;3967;48.702;9.326;2023-03-03T05:21:40;3.30;96.10
7844;DHT22;3967;48.702;9.326;2023-03-03T05:24:12;3.30;96.20
7844;DHT22;3967;48.702;9.326;2023-03-03T05:26:39;3.20;96.30
7844;DHT22;3967;48.702;9.326;2023-03-03T05:29:07;3.10;96.60
7844;DHT22;3967;48.702;9.326;2023-03-03T05:31:34;2.90;96.90
7844;DHT22;3967;48.702;9.326;2023-03-03T05:34:01;2.90;97.20
7844;DHT22;3967;48.702;9.326;2023-03-03T05:36:27;3.00;97.20
7844;DHT22;3967;48.702;9.326;2023-03-03T05:38:54;3.00;97.00
7844;DHT22;3967;48.702;9.326;2023-03-03T05:41:21;3.10;96.80
7844;DHT22;3967;48.702;9.326;2023-03-03T05:46:30;3.20;96.40
7844;DHT22;3967;48.702;9.326;2023-03-03T05:48:56;3.30;96.40
7844;DHT22;3967;48.702;9.326;2023-03-03T05:51:23;3.30;96.40
7844;DHT22;3967;48.702;9.326;2023-03-03T05:53:50;3.30;96.30
7844;DHT22;3967;48.702;9.326;2023-03-03T05:56:17;3.30;96.20
7844;DHT22;3967;48.702;9.326;2023-03-03T05:58:43;3.40;96.50
7844;DHT22;3967;48.702;9.326;2023-03-03T06:01:11;3.40;96.30
7844;DHT22;3967;48.702;9.326;2023-03-03T06:03:37;3.30;96.10
7844;DHT22;3967;48.702;9.326;2023-03-03T06:06:04;3.30;96.40
7844;DHT22;3967;48.702;9.326;2023-03-03T06:08:32;3.20;96.60
7844;DHT22;3967;48.702;9.326;2023-03-03T06:10:59;3.20;96.90
7844;DHT22;3967;48.702;9.326;2023-03-03T06:13:26;3.20;96.90
7844;DHT22;3967;48.702;9.326;2023-03-03T06:15:53;3.60;98.10
7844;DHT22;3967;48.702;9.326;2023-03-03T06:18:19;3.40;96.80
7844;DHT22;3967;48.702;9.326;2023-03-03T06:20:51;3.50;97.80
7844;DHT22;3967;48.702;9.326;2023-03-03T06:23:17;3.80;98.00
7844;DHT22;3967;48.702;9.326;2023-03-03T06:25:44;3.70;96.80
7844;DHT22;3967;48.702;9.326;2023-03-03T06:28:11;3.60;96.10
7844;DHT22;3967;48.702;9.326;2023-03-03T06:30:39;3.50;96.20
7844;DHT22;3967;48.702;9.326;2023-03-03T06:33:06;3.50;96.50
7844;DHT22;3967;48.702;9.326;2023-03-03T06:35:33;3.50;96.50
7844;DHT22;3967;48.702;9.326;2023-03-03T06:38:00;3.60;96.50
7844;DHT22;3967;48.702;9.326;2023-03-03T06:40:26;3.60;96.30
7844;DHT22;3967;48.702;9.326;2023-03-03T06:42:53;3.70;96.10
7844;DHT22;3967;48.702;9.326;2023-03-03T06:45:20;3.60;95.90
7844;DHT22;3967;48.702;9.326;2023-03-03T06:47:46;3.50;96.20
7844;DHT22;3967;48.702;9.326;2023-03-03T06:50:17;3.60;96.30
7844;DHT22;3967;48.702;9.326;2023-03-03T06:52:45;3.60;96.30
7844;DHT22;3967;48.702;9.326;2023-03-03T06:55:17;3.60;96.10
7844;DHT22;3967;48.702;9.326;2023-03-03T06:57:46;3.60;96.30
7844;DHT22;3967;48.702;9.326;2023-03-03T07:02:59;3.70;96.10
7844;DHT22;3967;48.702;9.326;2023-03-03T07:05:28;3.60;95.80
7844;DHT22;3967;48.702;9.326;2023-03-03T07:07:55;3.60;96.10
7844;DHT22;3967;48.702;9.326;2023-03-03T07:10:29;3.70;96.10
7844;DHT22;3967;48.702;9.326;2023-03-03T07:13:07;3.60;96.10
7844;DHT22;3967;48.702;9.326;2023-03-03T07:15:40;3.70;96.20
7844;DHT22;3967;48.702;9.326;2023-03-03T07:18:30;3.70;96.10
7844;DHT22;3967;48.702;9.326;2023-03-03T07:21:13;3.80;96.30
7844;DHT22;3967;48.702;9.326;2023-03-03T07:23:42;3.90;96.10
7844;DHT22;3967;48.702;9.326;2023-03-03T07:26:14;3.80;95.90
7844;DHT22;3967;48.702;9.326;2023-03-03T07:28:43;3.80;96.10
7844;DHT22;3967;48.702;9.326;2023-03-03T07:31:35;3.80;96.00
7844;DHT22;3967;48.702;9.326;2023-03-03T07:36:43;3.80;95.30
7844;DHT22;3967;48.702;9.326;2023-03-03T07:41:48;4.00;95.00
7844;DHT22;3967;48.702;9.326;2023-03-03T07:44:21;4.00;95.00
7844;DHT22;3967;48.702;9.326;2023-03-03T07:46:50;4.10;94.80
7844;DHT22;3967;48.702;9.326;2023-03-03T07:49:35;4.20;94.30
7844;DHT22;3967;48.702;9.326;2023-03-03T07:54:52;4.20;94.20
7844;DHT22;3967;48.702;9.326;2023-03-03T07:57:36;4.70;95.80
7844;DHT22;3967;48.702;9.326;2023-03-03T08:10:52;4.20;92.30
7844;DHT22;3967;48.702;9.326;2023-03-03T08:13:37;4.30;92.20
7844;DHT22;3967;48.702;9.326;2023-03-03T08:21:12;4.30;91.90
7844;DHT22;3967;48.702;9.326;2023-03-03T08:23:40;4.50;91.90
7844;DHT22;3967;48.702;9.326;2023-03-03T08:26:07;4.50;91.50
7844;DHT22;3967;48.702;9.326;2023-03-03T08:28:34;4.50;91.40
7844;DHT22;3967;48.702;9.326;2023-03-03T08:31:01;4.60;91.10
7844;DHT22;3967;48.702;9.326;2023-03-03T08:33:43;4.70;90.70
7844;DHT22;3967;48.702;9.326;2023-03-03T08:36:10;4.70;90.60
7844;DHT22;3967;48.702;9.326;2023-03-03T08:38:38;4.60;90.60
7844;DHT22;3967;48.702;9.326;2023-03-03T08:41:05;4.70;90.60
7844;DHT22;3967;48.702;9.326;2023-03-03T08:43:32;4.80;90.50
7844;DHT22;3967;48.702;9.326;2023-03-03T08:46:00;4.90;90.50
7844;DHT22;3967;48.702;9.326;2023-03-03T08:48:28;4.80;90.50
7844;DHT22;3967;48.702;9.326;2023-03-03T08:50:55;5.00;90.30
7844;DHT22;3967;48.702;9.326;2023-03-03T08:53:22;4.90;90.00
7844;DHT22;3967;48.702;9.326;2023-03-03T08:55:49;5.10;90.40
7844;DHT22;3967;48.702;9.326;2023-03-03T08:58:18;5.10;90.30
7844;DHT22;3967;48.702;9.326;2023-03-03T09:00:46;5.20;90.20
7844;DHT22;3967;48.702;9.326;2023-03-03T09:03:16;5.00;90.40
7844;DHT22;3967;48.702;9.326;2023-03-03T09:05:43;5.20;90.30
7844;DHT22;3967;48.702;9.326;2023-03-03T09:08:11;5.30;90.00
7844;DHT22;3967;48.702;9.326;2023-03-03T09:10:38;5.50;90.00
7844;DHT22;3967;48.702;9.326;2023-03-03T09:13:16;5.50;89.30
7844;DHT22;3967;48.702;9.326;2023-03-03T09:15:44;5.40;89.20
7844;DHT22;3967;48.702;9.326;2023-03-03T09:18:25;5.40;88.80
7844;DHT22;3967;48.702;9.326;2023-03-03T09:20:56;5.40;89.70
7844;DHT22;3967;48.702;9.326;2023-03-03T09:25:53;5.40;87.70
7844;DHT22;3967;48.702;9.326;2023-03-03T09:28:26;5.60;88.00
7844;DHT22;3967;48.702;9.326;2023-03-03T09:30:58;5.60;88.40
7844;DHT22;3967;48.702;9.326;2023-03-03T09:33:41;5.60;88.20
7844;DHT22;3967;48.702;9.326;2023-03-03T09:38:45;6.00;87.50
7844;DHT22;3967;48.702;9.326;2023-03-03T09:47:20;5.90;85.10
7844;DHT22;3967;48.702;9.326;2023-03-03T09:55:32;6.20;85.40
7844;DHT22;3967;48.702;9.326;2023-03-03T09:58:33;6.20;84.60
7844;DHT22;3967;48.702;9.326;2023-03-03T10:06:36;6.60;83.90
7844;DHT22;3967;48.702;9.326;2023-03-03T10:12:21;6.80;84.10
7844;DHT22;3967;48.702;9.326;2023-03-03T10:17:49;7.00;83.50
7844;DHT22;3967;48.702;9.326;2023-03-03T10:31:08;7.30;83.20
7844;DHT22;3967;48.702;9.326;2023-03-03T10:36:30;7.40;81.90
7844;DHT22;3967;48.702;9.326;2023-03-03T10:42:13;7.50;81.10
7844;DHT22;3967;48.702;9.326;2023-03-03T10:50:02;7.60;82.20
7844;DHT22;3967;48.702;9.326;2023-03-03T10:52:38;7.50;81.70
7844;DHT22;3967;48.702;9.326;2023-03-03T11:04:10;7.80;80.90
7844;DHT22;3967;48.702;9.326;2023-03-03T11:20:05;8.30;80.50
7844;DHT22;3967;48.702;9.326;2023-03-03T11:22:41;8.10;79.10
7844;DHT22;3967;48.702;9.326;2023-03-03T11:30:58;8.40;80.40
7844;DHT22;3967;48.702;9.326;2023-03-03T11:33:57;8.30;80.70
7844;DHT22;3967;48.702;9.326;2023-03-03T11:36:31;8.30;79.10
7844;DHT22;3967;48.702;9.326;2023-03-03T11:39:17;8.40;79.60
7844;DHT22;3967;48.702;9.326;2023-03-03T11:42:06;8.50;79.70
7844;DHT22;3967;48.702;9.326;2023-03-03T11:44:40;8.60;79.70
7844;DHT22;3967;48.702;9.326;2023-03-03T11:47:23;8.70;77.90
7844;DHT22;3967;48.702;9.326;2023-03-03T11:52:29;8.70;77.60
7844;DHT22;3967;48.702;9.326;2023-03-03T11:58:27;8.70;77.30
7844;DHT22;3967;48.702;9.326;2023-03-03T12:04:21;8.70;77.80
7844;DHT22;3967;48.702;9.326;2023-03-03T12:07:09;8.60;77.40
7844;DHT22;3967;48.702;9.326;2023-03-03T12:12:44;8.60;77.20
7844;DHT22;3967;48.702;9.326;2023-03-03T12:36:24;8.90;77.10
7844;DHT22;3967;48.702;9.326;2023-03-03T12:43:46;8.80;75.50
7844;DHT22;3967;48.702;9.326;2023-03-03T12:46:41;8.70;75.70
7844;DHT22;3967;48.702;9.326;2023-03-03T12:49:10;9.00;76.00
7844;DHT22;3967;48.702;9.326;2023-03-03T13:05:51;9.50;75.60
7844;DHT22;3967;48.702;9.326;2023-03-03T13:19:39;9.30;75.00
7844;DHT22;3967;48.702;9.326;2023-03-03T13:25:05;9.50;74.50
7844;DHT22;3967;48.702;9.326;2023-03-03T13:27:39;9.60;74.20
7844;DHT22;3967;48.702;9.326;2023-03-03T13:30:23;9.40;73.70
7844;DHT22;3967;48.702;9.326;2023-03-03T13:33:34;9.30;74.00
7844;DHT22;3967;48.702;9.326;2023-03-03T13:36:14;9.40;75.20
7844;DHT22;3967;48.702;9.326;2023-03-03T13:38:47;9.40;74.20
7844;DHT22;3967;48.702;9.326;2023-03-03T13:41:21;9.20;74.20
7844;DHT22;3967;48.702;9.326;2023-03-03T13:44:40;9.30;75.30
7844;DHT22;3967;48.702;9.326;2023-03-03T13:52:28;9.50;73.00
7844;DHT22;3967;48.702;9.326;2023-03-03T14:05:48;9.60;71.90
7844;DHT22;3967;48.702;9.326;2023-03-03T14:16:42;9.80;72.30
7844;DHT22;3967;48.702;9.326;2023-03-03T14:19:34;9.70;72.40
7844;DHT22;3967;48.702;9.326;2023-03-03T14:25:03;9.90;71.30
7844;DHT22;3967;48.702;9.326;2023-03-03T14:30:28;9.70;71.20
7844;DHT22;3967;48.702;9.326;2023-03-03T14:35:30;9.70;72.50
7844;DHT22;3967;48.702;9.326;2023-03-03T14:38:02;9.60;71.70
7844;DHT22;3967;48.702;9.326;2023-03-03T14:40:31;9.70;71.80
7844;DHT22;3967;48.702;9.326;2023-03-03T14:43:01;9.90;71.50
7844;DHT22;3967;48.702;9.326;2023-03-03T14:45:35;10.00;70.30
7844;DHT22;3967;48.702;9.326;2023-03-03T14:48:16;9.90;71.00
7844;DHT22;3967;48.702;9.326;2023-03-03T14:50:49;9.80;72.00
7844;DHT22;3967;48.702;9.326;2023-03-03T14:55:50;9.90;71.60
7844;DHT22;3967;48.702;9.326;2023-03-03T14:58:46;10.00;69.70
7844;DHT22;3967;48.702;9.326;2023-03-03T15:01:36;10.10;69.40
7844;DHT22;3967;48.702;9.326;2023-03-03T15:04:25;10.10;69.50
7844;DHT22;3967;48.702;9.326;2023-03-03T15:06:53;9.90;70.50
7844;DHT22;3967;48.702;9.326;2023-03-03T15:09:45;9.90;71.00
7844;DHT22;3967;48.702;9.326;2023-03-03T15:12:22;9.90;70.20
7844;DHT22;3967;48.702;9.326;2023-03-03T15:15:01;9.90;70.80
7844;DHT22;3967;48.702;9.326;2023-03-03T15:18:08;9.80;70.40
7844;DHT22;3967;48.702;9.326;2023-03-03T15:30:52;9.80;70.50
7844;DHT22;3967;48.702;9.326;2023-03-03T15:39:44;9.70;70.30
7844;DHT22;3967;48.702;9.326;2023-03-03T15:42:14;9.70;70.20
7844;DHT22;3967;48.702;9.326;2023-03-03T15:45:23;9.60;70.70
7844;DHT22;3967;48.702;9.326;2023-03-03T16:03:59;9.70;70.40
7844;DHT22;3967;48.702;9.326;2023-03-03T16:09:35;9.90;70.00
7844;DHT22;3967;48.702;9.326;2023-03-03T16:15:12;9.80;69.70
7844;DHT22;3967;48.702;9.326;2023-03-03T16:31:46;9.50;71.40
7844;DHT22;3967;48.702;9.326;2023-03-03T16:37:21;9.50;71.80
7844;DHT22;3967;48.702;9.326;2023-03-03T16:42:56;9.20;72.10
7844;DHT22;3967;48.702;9.326;2023-03-03T16:45:33;9.10;72.50
7844;DHT22;3967;48.702;9.326;2023-03-03T16:56:27;8.70;73.10
7844;DHT22;3967;48.702;9.326;2023-03-03T17:04:57;8.40;73.90
7844;DHT22;3967;48.702;9.326;2023-03-03T17:13:01;8.20;74.30
7844;DHT22;3967;48.702;9.326;2023-03-03T17:16:06;8.10;75.20
7844;DHT22;3967;48.702;9.326;2023-03-03T17:37:43;7.60;75.60
7844;DHT22;3967;48.702;9.326;2023-03-03T17:40:27;7.60;75.70
7844;DHT22;3967;48.702;9.326;2023-03-03T17:43:10;7.50;75.90
7844;DHT22;3967;48.702;9.326;2023-03-03T17:45:42;7.40;76.20
7844;DHT22;3967;48.702;9.326;2023-03-03T17:51:35;7.30;76.50
7844;DHT22;3967;48.702;9.326;2023-03-03T18:14:32;7.20;76.90
7844;DHT22;3967;48.702;9.326;2023-03-03T18:17:34;7.10;77.30
7844;DHT22;3967;48.702;9.326;2023-03-03T18:25:24;6.90;77.90
7844;DHT22;3967;48.702;9.326;2023-03-03T18:30:29;6.80;78.20
7844;DHT22;3967;48.702;9.326;2023-03-03T18:33:05;6.80;78.50
7844;DHT22;3967;48.702;9.326;2023-03-03T18:35:34;6.80;78.90
7844;DHT22;3967;48.702;9.326;2023-03-03T18:41:02;6.90;79.10
7844;DHT22;3967;48.702;9.326;2023-03-03T18:49:08;6.70;79.60
7844;DHT22;3967;48.702;9.326;2023-03-03T19:02:31;6.20;81.30
7844;DHT22;3967;48.702;9.326;2023-03-03T19:05:19;6.20;82.00
7844;DHT22;3967;48.702;9.326;2023-03-03T19:07:55;6.20;82.00
7844;DHT22;3967;48.702;9.326;2023-03-03T19:16:07;6.00;82.90
7844;DHT22;3967;48.702;9.326;2023-03-03T19:18:56;6.00;83.40
7844;DHT22;3967;48.702;9.326;2023-03-03T19:21:31;6.00;83.50
7844;DHT22;3967;48.702;9.326;2023-03-03T19:24:00;5.90;83.50
7844;DHT22;3967;48.702;9.326;2023-03-03T19:26:55;6.00;84.00
7844;DHT22;3967;48.702;9.326;2023-03-03T19:57:40;5.80;84.90
7844;DHT22;3967;48.702;9.326;2023-03-03T20:03:38;5.80;85.50
7844;DHT22;3967;48.702;9.326;2023-03-03T20:08:17;5.70;86.30
7844;DHT22;3967;48.702;9.326;2023-03-03T20:13:59;5.70;86.40
7844;DHT22;3967;48.702;9.326;2023-03-03T20:16:43;5.60;86.10
7844;DHT22;3967;48.702;9.326;2023-03-03T20:22:50;5.50;87.20
7844;DHT22;3967;48.702;9.326;2023-03-03T20:33:06;5.40;87.30
7844;DHT22;3967;48.702;9.326;2023-03-03T20:39:18;5.50;87.20
7844;DHT22;3967;48.702;9.326;2023-03-03T20:47:02;5.40;87.70
7844;DHT22;3967;48.702;9.326;2023-03-03T20:57:59;5.50;86.80
7844;DHT22;3967;48.702;9.326;2023-03-03T21:00:37;5.50;86.70
7844;DHT22;3967;48.702;9.326;2023-03-03T21:03:34;5.50;86.70
7844;DHT22;3967;48.702;9.326;2023-03-03T21:08:42;5.50;86.80
7844;DHT22;3967;48.702;9.326;2023-03-03T21:11:10;5.40;87.00
7844;DHT22;3967;48.702;9.326;2023-03-03T21:13:43;5.40;87.00
7844;DHT22;3967;48.702;9.326;2023-03-03T21:18:37;5.40;86.90
7844;DHT22;3967;48.702;9.326;2023-03-03T21:21:05;5.40;86.90
7844;DHT22;3967;48.702;9.326;2023-03-03T21:23:32;5.30;87.00
7844;DHT22;3967;48.702;9.326;2023-03-03T21:25:59;5.20;87.30
7844;DHT22;3967;48.702;9.326;2023-03-03T21:36:04;5.20;87.10
7844;DHT22;3967;48.702;9.326;2023-03-03T21:38:33;5.10;87.20
7844;DHT22;3967;48.702;9.326;2023-03-03T21:41:01;5.10;87.30
7844;DHT22;3967;48.702;9.326;2023-03-03T21:43:51;5.10;87.30
7844;DHT22;3967;48.702;9.326;2023-03-03T21:46:20;5.10;87.30
7844;DHT22;3967;48.702;9.326;2023-03-03T21:48:49;5.00;87.30
7844;DHT22;3967;48.702;9.326;2023-03-03T21:51:16;5.00;87.60
7844;DHT22;3967;48.702;9.326;2023-03-03T21:53:45;5.00;87.60
7844;DHT22;3967;48.702;9.326;2023-03-03T21:56:13;4.90;87.60
7844;DHT22;3967;48.702;9.326;2023-03-03T21:58:40;4.90;87.90
7844;DHT22;3967;48.702;9.326;2023-03-03T22:01:07;4.90;88.00
7844;DHT22;3967;48.702;9.326;2023-03-03T22:03:34;4.90;88.00
7844;DHT22;3967;48.702;9.326;2023-03-03T22:06:01;4.90;88.00
7844;DHT22;3967;48.702;9.326;2023-03-03T22:08:28;4.80;88.00
7844;DHT22;3967;48.702;9.326;2023-03-03T22:10:55;4.80;88.30
7844;DHT22;3967;48.702;9.326;2023-03-03T22:13:25;4.80;88.30
7844;DHT22;3967;48.702;9.326;2023-03-03T22:15:52;4.80;88.50
7844;DHT22;3967;48.702;9.326;2023-03-03T22:18:20;4.70;88.50
7844;DHT22;3967;48.702;9.326;2023-03-03T22:20:47;4.70;88.50
7844;DHT22;3967;48.702;9.326;2023-03-03T22:23:16;4.70;88.50
7844;DHT22;3967;48.702;9.326;2023-03-03T22:25:44;4.60;88.80
7844;DHT22;3967;48.702;9.326;2023-03-03T22:28:11;4.60;89.00
7844;DHT22;3967;48.702;9.326;2023-03-03T22:30:38;4.60;89.00
7844;DHT22;3967;48.702;9.326;2023-03-03T22:33:05;4.60;89.10
7844;DHT22;3967;48.702;9.326;2023-03-03T22:35:31;4.50;89.00
7844;DHT22;3967;48.702;9.326;2023-03-03T22:37:58;4.50;89.20
7844;DHT22;3967;48.702;9.326;2023-03-03T22:40:25;4.50;89.20
7844;DHT22;3967;48.702;9.326;2023-03-03T22:42:52;4.50;89.30
7844;DHT22;3967;48.702;9.326;2023-03-03T22:45:18;4.50;89.40
7844;DHT22;3967;48.702;9.326;2023-03-03T22:47:45;4.40;89.40
7844;DHT22;3967;48.702;9.326;2023-03-03T22:50:12;4.50;89.40
7844;DHT22;3967;48.702;9.326;2023-03-03T22:52:39;4.40;89.30
7844;DHT22;3967;48.702;9.326;2023-03-03T22:55:06;4.40;89.60
7844;DHT22;3967;48.702;9.326;2023-03-03T22:57:33;4.40;89.70
7844;DHT22;3967;48.702;9.326;2023-03-03T23:00:00;4.40;89.50
7844;DHT22;3967;48.702;9.326;2023-03-03T23:02:28;4.30;89.50
7844;DHT22;3967;48.702;9.326;2023-03-03T23:04:55;4.30;89.40
7844;DHT22;3967;48.702;9.326;2023-03-03T23:07:27;4.20;89.40
7844;DHT22;3967;48.702;9.326;2023-03-03T23:09:55;4.20;89.90
7844;DHT22;3967;48.702;9.326;2023-03-03T23:12:22;4.20;90.00
7844;DHT22;3967;48.702;9.326;2023-03-03T23:14:48;4.10;90.00
7844;DHT22;3967;48.702;9.326;2023-03-03T23:17:15;4.00;89.90
7844;DHT22;3967;48.702;9.326;2023-03-03T23:19:42;4.00;90.00
7844;DHT22;3967;48.702;9.326;2023-03-03T23:22:12;4.00;90.00
7844;DHT22;3967;48.702;9.326;2023-03-03T23:24:40;3.90;90.10
7844;DHT22;3967;48.702;9.326;2023-03-03T23:27:08;3.90;90.10
7844;DHT22;3967;48.702;9.326;2023-03-03T23:29:36;3.90;90.20
7844;DHT22;3967;48.702;9.326;2023-03-03T23:32:04;3.80;90.20
7844;DHT22;3967;48.702;9.326;2023-03-03T23:34:31;3.80;90.20
7844;DHT22;3967;48.702;9.326;2023-03-03T23:36:57;3.80;90.10
7844;DHT22;3967;48.702;9.326;2023-03-03T23:39:24;3.80;90.20
7844;DHT22;3967;48.702;9.326;2023-03-03T23:41:51;3.80;90.20
7844;DHT22;3967;48.702;9.326;2023-03-03T23:44:17;3.70;90.20
7844;DHT22;3967;48.702;9.326;2023-03-03T23:46:44;3.70;90.30
7844;DHT22;3967;48.702;9.326;2023-03-03T23:49:11;3.60;90.30
7844;DHT22;3967;48.702;9.326;2023-03-03T23:51:38;3.50;90.50
7844;DHT22;3967;48.702;9.326;2023-03-03T23:54:04;3.50;90.80
7844;DHT22;3967;48.702;9.326;2023-03-03T23:56:31;3.50;90.90
7844;DHT22;3967;48.702;9.326;2023-03-03T23:58:58;3.40;90.90
